aviador You're here:

YPEA Decoded Metar

PEARCE (AUS-AFB) in AUSTRALIA
Report Time2017-08-21 13:30:00
UTC Time2017-08-21 13:56:44
Flight Rules vfr VFR
Wind190° at 05 kt
W.Decomp.*RWY 18: 4.9 kt HW 1.0 kt RCW
RWY 23: 3.9 kt HW 3.1 kt LCW
W.Rank190° ranks 5
Current wind is below 190° avg. (7.1)
Visibility9999 m
Phenomena:Light Shower Rain
Clouds:Scattered 020 Hf
Overcast 033 Hf
Expected CloudBase > 400 ft AGL from Temp-Dew spread
Ceiling3,300 ft
Temp13°C (ISA -2)
Dew Point12°C (94% RH)
AAT11.8°C
QNH1022 hPa
Density Alt-154 ft
Elevation161 ft
Report Wrong Elevation
Raw Report
YPEA 211330Z AUTO 19005KT 9999 -SHRA SCT020 OVC033 13/12 Q1022=

Extra information for YPEA:More info

Metar Taf Metar & Taf Last 4 Metars F.Rules Stats Wind Profile Meteogram Temp Stats Airport Information Weather charts Add Link Nearby VenuesMetar ALERT Operation Metar Decoded Social comments